Time;durP1;ratioP1;P1;durP2;ratioP2;P2;SDS_P1;SDS_P2;PMS_P1;PMS_P2;Temp;Humidity;BMP_temperature;BMP_pressure;BME280_temperature;BME280_humidity;BME280_pressure;Samples;Min_cycle;Max_cycle;Signal;HPM_P1;HPM_P2
2022/03/10 00:00:08;;;;;;;44.75;22.08;;;6.00;95.70;;;;;;5094984;28;20055;-78
2022/03/10 00:02:34;;;;;;;43.67;21.05;;;6.00;95.60;;;;;;5094568;28;20379;-78
2022/03/10 00:04:59;;;;;;;43.97;21.38;;;6.10;95.60;;;;;;5094492;28;20050;-78
2022/03/10 00:07:25;;;;;;;46.17;22.23;;;6.00;95.80;;;;;;5094472;28;20385;-80
2022/03/10 00:09:50;;;;;;;40.22;21.52;;;6.00;95.80;;;;;;5093861;28;20020;-79
2022/03/10 00:12:16;;;;;;;49.10;22.00;;;6.10;95.80;;;;;;5094536;28;20031;-79
2022/03/10 00:14:42;;;;;;;38.78;20.73;;;6.00;95.90;;;;;;5094575;28;20064;-79
2022/03/10 00:17:07;;;;;;;42.28;21.00;;;6.00;96.00;;;;;;5093475;28;20020;-78
2022/03/10 00:19:33;;;;;;;44.80;21.10;;;6.00;95.90;;;;;;5094436;28;20028;-79
2022/03/10 00:21:59;;;;;;;43.47;23.15;;;6.00;96.00;;;;;;5094442;28;20456;-79
2022/03/10 00:24:24;;;;;;;36.63;19.90;;;6.00;96.00;;;;;;5093484;28;20016;-79
2022/03/10 00:26:50;;;;;;;42.35;21.33;;;6.00;96.00;;;;;;5103649;28;20035;-79
2022/03/10 00:29:18;;;;;;;44.53;21.50;;;6.00;96.20;;;;;;5110308;28;20020;-78
2022/03/10 00:31:44;;;;;;;44.95;21.58;;;6.00;96.20;;;;;;5095455;28;20424;-79
2022/03/10 00:34:09;;;;;;;44.30;21.83;;;5.90;96.40;;;;;;5093472;28;20054;-78
2022/03/10 00:36:35;;;;;;;48.45;21.80;;;5.90;96.40;;;;;;5099369;28;20026;-79
2022/03/10 00:39:01;;;;;;;43.40;20.80;;;5.90;96.60;;;;;;5102703;28;20107;-78
2022/03/10 00:41:27;;;;;;;45.03;20.17;;;5.90;96.70;;;;;;5101975;28;20071;-78
2022/03/10 00:43:52;;;;;;;39.00;20.83;;;5.80;97.00;;;;;;5105925;28;20024;-78
2022/03/10 00:46:18;;;;;;;39.50;20.25;;;5.80;97.50;;;;;;5093756;28;20107;-79
2022/03/10 00:48:43;;;;;;;37.78;19.88;;;5.80;97.90;;;;;;5093993;28;20072;-79
2022/03/10 00:51:09;;;;;;;38.83;19.75;;;5.70;98.10;;;;;;5093455;28;20077;-79
2022/03/10 00:53:35;;;;;;;42.28;20.33;;;5.80;98.30;;;;;;5093123;28;20039;-79
2022/03/10 00:56:00;;;;;;;42.17;20.90;;;5.70;98.80;;;;;;5093945;28;20032;-79
2022/03/10 00:58:26;;;;;;;42.83;20.02;;;5.70;99.30;;;;;;5093463;28;20066;-79
2022/03/10 01:00:52;;;;;;;38.30;21.20;;;5.60;99.70;;;;;;5093184;28;20027;-79
2022/03/10 01:03:18;;;;;;;38.17;21.17;;;5.60;99.90;;;;;;5093179;28;20024;-78
2022/03/10 01:05:44;;;;;;;35.03;20.27;;;5.50;99.80;;;;;;5092951;28;20028;-79
2022/03/10 01:08:10;;;;;;;43.28;19.95;;;5.50;99.90;;;;;;5093067;28;20039;-79
2022/03/10 01:10:35;;;;;;;42.47;22.30;;;5.50;99.90;;;;;;5094371;28;20028;-79
2022/03/10 01:13:02;;;;;;;44.50;21.75;;;5.50;99.90;;;;;;5092731;28;20048;-80
2022/03/10 01:15:28;;;;;;;38.40;19.30;;;5.40;99.90;;;;;;5093148;28;20076;-79
2022/03/10 01:17:54;;;;;;;33.10;18.80;;;5.40;99.90;;;;;;5092918;28;20493;-78
2022/03/10 01:20:21;;;;;;;45.22;20.05;;;5.40;99.90;;;;;;5092412;28;20056;-79
2022/03/10 01:22:48;;;;;;;37.88;21.13;;;5.30;99.90;;;;;;5093131;28;20028;-79
2022/03/10 01:25:14;;;;;;;41.65;20.00;;;5.40;99.90;;;;;;5074679;28;20024;-80
2022/03/10 01:27:40;;;;;;;42.50;20.52;;;5.40;99.90;;;;;;5092520;28;20475;-80
2022/03/10 01:30:07;;;;;;;39.92;20.95;;;5.30;99.90;;;;;;5093152;28;20089;-80
2022/03/10 01:32:34;;;;;;;42.20;21.88;;;5.30;99.90;;;;;;5093137;28;20085;-80
2022/03/10 01:35:01;;;;;;;38.70;18.85;;;5.20;99.90;;;;;;5091573;28;20035;-80
2022/03/10 01:37:27;;;;;;;43.72;21.52;;;5.20;99.90;;;;;;5092618;28;20078;-81
2022/03/10 01:39:53;;;;;;;41.53;19.90;;;5.20;99.90;;;;;;5093126;28;20426;-80
2022/03/10 01:42:18;;;;;;;43.10;22.13;;;5.20;99.90;;;;;;5092031;28;20387;-78
2022/03/10 01:44:44;;;;;;;51.20;21.00;;;5.20;99.90;;;;;;5091850;28;20127;-78
2022/03/10 01:47:15;;;;;;;41.38;20.67;;;5.20;99.90;;;;;;5092626;28;20020;-78
2022/03/10 01:49:41;;;;;;;41.97;20.77;;;5.20;99.90;;;;;;5091935;28;20042;-78
2022/03/10 01:52:06;;;;;;;44.60;21.55;;;5.10;99.90;;;;;;5092804;28;20020;-78
2022/03/10 01:54:33;;;;;;;35.38;19.63;;;5.10;99.90;;;;;;5092602;28;20069;-78
2022/03/10 01:57:00;;;;;;;40.63;19.85;;;5.00;99.90;;;;;;5091857;28;20391;-77
2022/03/10 01:59:26;;;;;;;50.58;20.27;;;5.00;99.90;;;;;;5092330;28;20028;-78
2022/03/10 02:01:51;;;;;;;43.15;20.60;;;4.90;99.90;;;;;;5092598;28;20028;-78
2022/03/10 02:04:17;;;;;;;42.55;21.45;;;4.90;99.90;;;;;;5091357;28;20385;-78
2022/03/10 02:06:42;;;;;;;43.08;22.40;;;5.00;99.90;;;;;;5092632;28;20039;-77
2022/03/10 02:11:52;;;;;;;42.25;20.75;;;4.90;99.90;;;;;;5092451;28;20027;-78
2022/03/10 02:17:20;;;;;;;38.58;20.10;;;5.00;99.90;;;;;;5091786;28;20031;-78
2022/03/10 02:19:58;;;;;;;38.63;20.05;;;4.90;99.90;;;;;;5092344;28;20031;-78
2022/03/10 02:22:25;;;;;;;35.58;19.65;;;4.90;99.90;;;;;;5092109;28;20098;-78
2022/03/10 02:24:53;;;;;;;44.25;21.40;;;4.90;99.90;;;;;;5091572;28;20028;-80
2022/03/10 02:27:22;;;;;;;40.83;22.05;;;4.90;99.90;;;;;;5093936;28;20028;-79
2022/03/10 02:29:50;;;;;;;40.42;20.50;;;4.90;99.90;;;;;;5102717;28;20058;-80
2022/03/10 02:32:16;;;;;;;41.92;20.63;;;4.80;99.90;;;;;;5092351;28;20024;-79
2022/03/10 02:34:43;;;;;;;42.13;22.75;;;4.80;99.90;;;;;;5092139;28;20043;-79
2022/03/10 02:37:09;;;;;;;36.67;20.35;;;4.80;99.90;;;;;;5091457;28;20099;-79
2022/03/10 02:39:36;;;;;;;46.33;21.80;;;4.80;99.90;;;;;;5100668;28;20028;-78
2022/03/10 02:42:04;;;;;;;38.78;19.75;;;4.80;99.90;;;;;;5093612;28;20028;-79
2022/03/10 02:44:29;;;;;;;39.88;22.02;;;4.70;99.90;;;;;;5105966;28;20024;-79
2022/03/10 02:46:55;;;;;;;41.72;21.80;;;4.70;99.90;;;;;;5105200;28;20551;-79
2022/03/10 02:49:21;;;;;;;44.03;19.73;;;4.60;99.90;;;;;;5092451;28;20483;-78
2022/03/10 02:51:47;;;;;;;38.08;20.63;;;4.60;99.90;;;;;;5091770;28;20027;-79
2022/03/10 02:54:12;;;;;;;43.63;20.08;;;4.50;99.90;;;;;;5092227;28;20028;-78
2022/03/10 02:56:38;;;;;;;38.60;20.85;;;4.50;99.90;;;;;;5094183;28;20037;-79
2022/03/10 02:59:04;;;;;;;38.33;19.95;;;4.50;99.90;;;;;;5095763;28;20020;-80
2022/03/10 03:01:30;;;;;;;40.92;20.20;;;4.40;99.90;;;;;;5095522;28;20417;-78
2022/03/10 03:03:56;;;;;;;39.80;21.75;;;4.40;99.90;;;;;;5095975;28;20044;-77
2022/03/10 03:06:22;;;;;;;37.63;20.85;;;4.40;99.90;;;;;;5094923;28;20353;-79
2022/03/10 03:08:48;;;;;;;42.17;20.85;;;4.40;99.90;;;;;;5095605;28;20031;-78
2022/03/10 03:11:14;;;;;;;39.28;20.52;;;4.40;99.90;;;;;;5095393;28;20024;-78
2022/03/10 03:13:40;;;;;;;37.17;19.38;;;4.40;99.90;;;;;;5094959;28;20126;-78
2022/03/10 03:16:08;;;;;;;38.40;20.35;;;4.30;99.90;;;;;;5095746;28;20032;-78
2022/03/10 03:18:34;;;;;;;39.25;20.70;;;4.30;99.90;;;;;;5095660;28;20095;-78
2022/03/10 03:21:00;;;;;;;39.67;19.55;;;4.30;99.90;;;;;;5094940;28;20523;-78
2022/03/10 03:23:25;;;;;;;39.08;19.80;;;4.30;99.90;;;;;;5095278;28;20418;-78
2022/03/10 03:25:51;;;;;;;40.72;21.42;;;4.20;99.90;;;;;;5095481;28;20030;-77
2022/03/10 03:28:19;;;;;;;44.58;21.00;;;4.30;99.90;;;;;;5094575;28;20031;-77
2022/03/10 03:30:45;;;;;;;42.88;20.52;;;4.20;99.90;;;;;;5095365;28;20028;-77
2022/03/10 03:33:10;;;;;;;37.85;20.95;;;4.20;99.90;;;;;;5095253;28;20066;-78
2022/03/10 03:35:36;;;;;;;44.30;20.83;;;4.10;99.90;;;;;;5094459;28;20050;-78
2022/03/10 03:38:01;;;;;;;38.67;20.10;;;4.10;99.90;;;;;;5095153;28;20095;-78
2022/03/10 03:40:27;;;;;;;33.95;19.42;;;4.10;99.90;;;;;;5094372;28;20099;-78
2022/03/10 03:42:53;;;;;;;36.55;20.35;;;4.10;99.90;;;;;;5095373;28;20068;-77
2022/03/10 03:45:20;;;;;;;38.55;20.58;;;4.10;99.90;;;;;;5095157;28;20031;-77
2022/03/10 03:47:45;;;;;;;45.85;20.58;;;4.10;99.90;;;;;;5094464;28;20020;-79
2022/03/10 03:50:11;;;;;;;40.25;20.17;;;4.10;99.90;;;;;;5094887;28;20089;-78
2022/03/10 03:52:37;;;;;;;41.85;21.48;;;4.00;99.90;;;;;;5094844;28;20024;-79
2022/03/10 03:55:03;;;;;;;37.90;20.33;;;4.00;99.90;;;;;;5094393;28;20042;-78
2022/03/10 03:57:28;;;;;;;36.83;20.20;;;4.00;99.90;;;;;;5094794;28;20536;-79
2022/03/10 03:59:54;;;;;;;42.80;21.13;;;4.00;99.90;;;;;;5094790;28;20024;-78
2022/03/10 04:02:20;;;;;;;37.47;21.75;;;4.00;99.90;;;;;;5093877;28;20021;-78
2022/03/10 04:04:45;;;;;;;40.65;20.50;;;3.90;99.90;;;;;;5094283;28;20040;-78
2022/03/10 04:07:24;;;;;;;41.50;20.88;;;3.90;99.90;;;;;;5109809;27;20123;-78
2022/03/10 04:09:50;;;;;;;38.17;19.75;;;3.80;99.90;;;;;;5089118;28;20128;-78
2022/03/10 04:12:15;;;;;;;39.53;20.08;;;3.90;99.90;;;;;;5089732;28;20076;-78
2022/03/10 04:14:41;;;;;;;38.40;20.08;;;3.80;99.90;;;;;;5089849;28;20036;-78
2022/03/10 04:17:06;;;;;;;40.00;19.85;;;3.80;99.90;;;;;;5088829;28;20035;-79
2022/03/10 04:19:32;;;;;;;39.08;20.45;;;3.80;99.90;;;;;;5089553;28;20025;-78
2022/03/10 04:21:58;;;;;;;35.97;20.08;;;3.80;99.90;;;;;;5089572;28;20123;-80
2022/03/10 04:24:23;;;;;;;40.33;21.05;;;3.80;99.90;;;;;;5088627;28;20052;-79
2022/03/10 04:26:49;;;;;;;38.60;20.05;;;3.80;99.90;;;;;;5089322;28;20067;-79
2022/03/10 04:29:15;;;;;;;37.72;20.77;;;3.70;99.90;;;;;;5090684;28;20032;-79
2022/03/10 04:31:42;;;;;;;43.35;20.42;;;3.70;99.90;;;;;;5105736;28;20028;-80
2022/03/10 04:34:08;;;;;;;42.13;21.90;;;3.70;99.90;;;;;;5092134;28;20025;-79
2022/03/10 04:36:33;;;;;;;37.33;20.45;;;3.70;99.90;;;;;;5089372;28;20028;-79
2022/03/10 04:38:59;;;;;;;39.95;21.70;;;3.70;99.90;;;;;;5088740;28;20112;-79
2022/03/10 04:41:24;;;;;;;36.67;20.17;;;3.60;99.90;;;;;;5100571;28;20088;-79
2022/03/10 04:43:50;;;;;;;41.95;20.70;;;3.60;99.90;;;;;;5093435;28;20020;-79
2022/03/10 04:46:15;;;;;;;40.70;20.63;;;3.60;99.90;;;;;;5104125;28;20063;-78
2022/03/10 04:48:42;;;;;;;42.45;20.25;;;3.60;99.90;;;;;;5094165;28;20056;-77
2022/03/10 04:51:08;;;;;;;41.17;21.20;;;3.50;99.90;;;;;;5088660;28;20036;-78
2022/03/10 04:53:33;;;;;;;42.78;22.13;;;3.50;99.90;;;;;;5089251;28;20020;-77
2022/03/10 04:55:59;;;;;;;39.28;20.02;;;3.50;99.90;;;;;;5089184;28;20024;-80
2022/03/10 04:58:24;;;;;;;38.33;21.00;;;3.50;99.90;;;;;;5087883;28;20475;-79
2022/03/10 05:00:50;;;;;;;35.28;19.45;;;3.50;99.90;;;;;;5089057;28;20036;-79
2022/03/10 05:03:15;;;;;;;37.83;20.17;;;3.50;99.90;;;;;;5088640;28;20423;-78
2022/03/10 05:05:41;;;;;;;37.30;20.20;;;3.50;99.90;;;;;;5094257;28;20101;-77
2022/03/10 05:08:07;;;;;;;39.35;20.08;;;3.50;99.90;;;;;;5109558;28;20324;-78
2022/03/10 05:10:32;;;;;;;39.47;20.88;;;3.40;99.90;;;;;;5109263;28;20024;-78
2022/03/10 05:13:01;;;;;;;42.30;21.90;;;3.40;99.90;;;;;;5108326;28;20027;-78
2022/03/10 05:15:28;;;;;;;44.08;21.50;;;3.40;99.90;;;;;;5108696;28;20059;-78
2022/03/10 05:17:54;;;;;;;38.05;21.33;;;3.30;99.90;;;;;;5100203;28;20360;-78
2022/03/10 05:20:20;;;;;;;34.83;19.52;;;3.40;99.90;;;;;;5094438;28;20024;-78
2022/03/10 05:22:50;;;;;;;42.13;22.98;;;3.40;99.90;;;;;;5095512;28;20464;-78
2022/03/10 05:25:17;;;;;;;;;;;3.40;99.90;;;;;;5095060;28;20480;-78
2022/03/10 05:27:43;;;;;;;43.35;19.83;;;3.40;99.90;;;;;;5094640;28;19904;-78
2022/03/10 05:30:10;;;;;;;40.00;20.60;;;3.40;99.90;;;;;;5094865;28;20500;-78
2022/03/10 05:32:36;;;;;;;40.53;20.58;;;3.30;99.90;;;;;;5094984;28;20035;-78
2022/03/10 05:35:06;;;;;;;41.97;22.17;;;3.30;99.90;;;;;;5094542;28;20028;-78
2022/03/10 05:37:35;;;;;;;40.17;21.30;;;3.30;99.90;;;;;;5095022;28;20115;-79
2022/03/10 05:40:00;;;;;;;39.08;20.48;;;3.30;99.90;;;;;;5094394;28;20024;-78
2022/03/10 05:42:26;;;;;;;38.08;20.08;;;3.30;99.90;;;;;;5094756;28;20157;-78
2022/03/10 05:44:51;;;;;;;41.15;20.33;;;3.30;99.90;;;;;;5094913;28;20387;-77
2022/03/10 05:47:17;;;;;;;59.00;22.15;;;3.30;99.90;;;;;;5093772;28;20032;-79
2022/03/10 05:49:43;;;;;;;45.55;22.85;;;3.20;99.90;;;;;;5094782;28;20097;-79
2022/03/10 05:52:08;;;;;;;47.03;22.40;;;3.20;99.90;;;;;;5094461;28;20028;-79
2022/03/10 05:54:37;;;;;;;40.20;21.73;;;3.20;99.90;;;;;;5093851;28;20020;-79
2022/03/10 05:57:02;;;;;;;38.00;21.23;;;3.30;99.90;;;;;;5094452;28;20038;-79
2022/03/10 05:59:28;;;;;;;39.88;20.90;;;3.20;99.90;;;;;;5094131;28;20027;-78
2022/03/10 06:01:54;;;;;;;43.33;22.40;;;3.20;99.90;;;;;;5093567;28;20024;-79
2022/03/10 06:04:19;;;;;;;43.60;20.80;;;3.20;99.90;;;;;;5094285;28;20036;-78
2022/03/10 06:06:45;;;;;;;46.90;21.63;;;3.20;99.90;;;;;;5094277;28;20054;-78
2022/03/10 06:09:11;;;;;;;37.42;20.58;;;3.20;99.90;;;;;;5093399;28;20024;-78
2022/03/10 06:11:37;;;;;;;39.90;20.40;;;3.20;99.90;;;;;;5094292;28;20032;-78
2022/03/10 06:14:03;;;;;;;40.33;20.33;;;3.20;99.90;;;;;;5094173;28;20480;-78
2022/03/10 06:16:29;;;;;;;43.00;21.27;;;3.20;99.90;;;;;;5093230;28;20028;-79
2022/03/10 06:18:55;;;;;;;42.97;20.35;;;3.20;99.90;;;;;;5094412;28;20047;-78
2022/03/10 06:21:21;;;;;;;41.95;21.40;;;3.20;99.90;;;;;;5088211;28;20029;-77
2022/03/10 06:23:48;;;;;;;40.15;21.23;;;3.20;99.90;;;;;;5074225;28;20036;-78
2022/03/10 06:26:14;;;;;;;40.40;21.30;;;3.30;99.90;;;;;;5072241;28;20492;-79
2022/03/10 06:28:40;;;;;;;39.00;20.45;;;3.30;99.90;;;;;;5071737;28;20040;-78
2022/03/10 06:31:06;;;;;;;43.67;20.50;;;3.30;99.90;;;;;;5071120;28;20024;-78
2022/03/10 06:33:33;;;;;;;40.30;20.77;;;3.30;99.90;;;;;;5086525;28;20044;-78
2022/03/10 06:35:58;;;;;;;37.40;20.33;;;3.40;99.90;;;;;;5081727;28;20024;-77
2022/03/10 06:38:24;;;;;;;38.92;18.92;;;3.30;99.90;;;;;;5077787;28;20031;-80
2022/03/10 06:40:49;;;;;;;35.35;20.55;;;3.40;99.90;;;;;;5074120;28;20142;-78
2022/03/10 06:43:16;;;;;;;40.58;21.50;;;3.40;99.90;;;;;;5082446;28;20025;-78
2022/03/10 06:45:42;;;;;;;46.83;22.85;;;3.50;99.90;;;;;;5083855;28;20474;-79
2022/03/10 06:48:11;;;;;;;41.13;21.73;;;3.50;99.90;;;;;;5087030;28;20029;-78
2022/03/10 06:50:37;;;;;;;47.13;21.33;;;3.50;99.90;;;;;;5083788;28;20879;-78
2022/03/10 06:53:03;;;;;;;36.67;19.70;;;3.50;99.90;;;;;;5082632;28;20024;-78
2022/03/10 06:55:29;;;;;;;41.95;20.30;;;3.50;99.90;;;;;;5071890;28;20028;-79
2022/03/10 06:57:55;;;;;;;42.90;21.77;;;3.50;99.90;;;;;;5070986;28;20094;-78
2022/03/10 07:00:22;;;;;;;43.50;20.80;;;3.60;99.90;;;;;;5071066;28;20074;-78
2022/03/10 07:02:49;;;;;;;37.38;20.60;;;3.60;99.90;;;;;;5071977;28;20495;-78
2022/03/10 07:05:15;;;;;;;40.97;21.17;;;3.70;99.90;;;;;;5074642;28;20436;-77
2022/03/10 07:07:41;;;;;;;38.50;19.58;;;3.70;99.90;;;;;;5073587;28;20079;-77
2022/03/10 07:10:08;;;;;;;44.55;20.65;;;3.80;99.90;;;;;;5071515;28;20039;-77
2022/03/10 07:12:35;;;;;;;32.92;19.05;;;3.80;99.90;;;;;;5070911;28;20021;-77
2022/03/10 07:15:01;;;;;;;48.50;20.77;;;3.90;99.90;;;;;;5087975;28;20024;-79
2022/03/10 07:17:27;;;;;;;35.13;20.25;;;4.00;99.90;;;;;;5077774;28;20032;-79
2022/03/10 07:19:52;;;;;;;38.13;19.40;;;4.00;99.90;;;;;;5070930;28;20096;-79
2022/03/10 07:22:19;;;;;;;37.00;20.92;;;4.00;99.90;;;;;;5071452;28;20031;-77
2022/03/10 07:24:45;;;;;;;39.40;20.20;;;4.10;99.90;;;;;;5072088;28;20027;-76
2022/03/10 07:27:11;;;;;;;41.60;20.30;;;4.00;99.90;;;;;;5076457;28;20027;-78
2022/03/10 07:29:37;;;;;;;42.88;20.02;;;4.10;99.90;;;;;;5074365;28;20024;-79
2022/03/10 07:32:02;;;;;;;35.25;19.40;;;4.10;99.90;;;;;;5071667;28;20028;-79
2022/03/10 07:34:28;;;;;;;35.85;19.38;;;4.20;99.90;;;;;;5070396;28;20023;-78
2022/03/10 07:36:54;;;;;;;37.60;18.70;;;4.20;99.90;;;;;;5071374;28;20020;-80
2022/03/10 07:39:19;;;;;;;36.95;20.00;;;4.30;99.90;;;;;;5073988;28;20502;-82
2022/03/10 07:41:45;;;;;;;36.80;19.23;;;4.30;99.90;;;;;;5070100;28;20021;-81
2022/03/10 07:44:10;;;;;;;37.42;19.73;;;4.40;99.90;;;;;;5084586;28;20484;-81
2022/03/10 07:46:36;;;;;;;47.10;20.65;;;4.50;99.90;;;;;;5069431;28;20078;-82
2022/03/10 07:49:03;;;;;;;44.53;21.08;;;4.50;99.90;;;;;;5075179;28;20366;-81
2022/03/10 07:51:29;;;;;;;44.65;20.70;;;4.60;99.90;;;;;;5071478;28;20039;-81
2022/03/10 07:53:55;;;;;;;39.22;18.83;;;4.70;99.90;;;;;;5073996;28;20710;-81
2022/03/10 07:56:20;;;;;;;44.60;20.83;;;4.80;99.90;;;;;;5071279;28;20032;-81
2022/03/10 07:58:46;;;;;;;38.40;20.65;;;4.80;99.90;;;;;;5071565;28;20033;-82
2022/03/10 08:01:12;;;;;;;36.85;18.88;;;4.80;99.90;;;;;;5087552;28;20089;-82
2022/03/10 08:03:38;;;;;;;35.30;19.90;;;4.90;99.90;;;;;;5091956;28;20020;-82
2022/03/10 08:06:04;;;;;;;43.30;21.25;;;5.00;99.90;;;;;;5080359;28;20045;-82
2022/03/10 08:08:30;;;;;;;39.38;19.42;;;5.00;99.90;;;;;;5069498;28;20028;-82
2022/03/10 08:10:56;;;;;;;34.53;19.48;;;5.10;99.90;;;;;;5073110;28;20388;-82
2022/03/10 08:13:26;;;;;;;40.75;20.58;;;5.10;99.90;;;;;;5072962;28;20032;-82
2022/03/10 08:15:51;;;;;;;36.75;19.83;;;5.20;99.90;;;;;;5072475;28;20032;-79
2022/03/10 08:18:17;;;;;;;37.35;20.05;;;5.30;99.90;;;;;;5073759;28;20032;-82
2022/03/10 08:20:43;;;;;;;38.88;21.17;;;5.40;99.90;;;;;;5074075;28;20472;-87
2022/03/10 08:23:11;;;;;;;44.90;20.88;;;5.40;99.90;;;;;;5072081;28;20023;-83
2022/03/10 08:25:36;;;;;;;37.45;20.27;;;5.50;99.90;;;;;;5073935;28;20080;-80
2022/03/10 08:28:03;;;;;;;46.30;20.73;;;5.50;99.90;;;;;;5072955;28;20063;-79
2022/03/10 08:30:29;;;;;;;43.97;20.52;;;5.50;99.90;;;;;;5073331;28;20032;-80
2022/03/10 08:32:54;;;;;;;40.88;20.83;;;5.60;99.90;;;;;;5072566;28;20024;-79
2022/03/10 08:35:20;;;;;;;42.35;20.98;;;5.70;99.90;;;;;;5073283;28;20290;-79
2022/03/10 08:37:46;;;;;;;43.15;21.45;;;5.80;99.90;;;;;;5071849;28;20025;-78
2022/03/10 08:40:15;;;;;;;44.22;20.98;;;5.90;99.90;;;;;;5072631;28;20082;-77
2022/03/10 08:42:42;;;;;;;45.05;20.90;;;6.00;99.90;;;;;;5074793;28;20048;-80
2022/03/10 08:45:08;;;;;;;36.67;20.27;;;6.20;99.90;;;;;;5077244;28;20035;-80
2022/03/10 08:47:34;;;;;;;42.97;22.58;;;6.30;99.90;;;;;;5072414;28;20511;-80
2022/03/10 08:49:59;;;;;;;46.70;22.92;;;6.40;99.90;;;;;;5071593;28;20021;-81
2022/03/10 08:52:25;;;;;;;50.85;24.55;;;6.50;99.90;;;;;;5072578;28;20061;-79
2022/03/10 08:54:54;;;;;;;45.55;22.98;;;6.60;99.90;;;;;;5075396;28;20028;-80
2022/03/10 08:57:20;;;;;;;45.53;21.70;;;6.90;99.90;;;;;;5074932;28;20143;-81
2022/03/10 08:59:46;;;;;;;45.28;21.98;;;6.80;99.90;;;;;;5088994;28;20064;-81
2022/03/10 09:02:12;;;;;;;41.45;21.38;;;6.90;99.90;;;;;;5110634;28;20028;-76
2022/03/10 09:04:38;;;;;;;37.50;19.10;;;7.00;99.90;;;;;;5114371;28;20031;-82
2022/03/10 09:07:04;;;;;;;44.70;22.02;;;7.00;99.90;;;;;;5110603;28;20048;-82
2022/03/10 09:09:29;;;;;;;39.53;20.13;;;7.20;99.90;;;;;;5114014;28;20023;-80
2022/03/10 09:11:58;;;;;;;38.10;20.27;;;7.20;99.90;;;;;;5102013;28;20498;-77
2022/03/10 09:14:24;;;;;;;37.25;21.15;;;7.30;99.90;;;;;;5097154;28;20028;-79
2022/03/10 09:16:52;;;;;;;45.25;20.65;;;7.40;99.90;;;;;;5100937;28;20073;-79
2022/03/10 09:19:18;;;;;;;44.78;22.15;;;7.50;99.90;;;;;;5111750;28;20059;-78
2022/03/10 09:21:44;;;;;;;39.25;22.45;;;7.60;99.90;;;;;;5085969;28;20411;-79
2022/03/10 09:24:10;;;;;;;35.95;20.20;;;7.70;99.90;;;;;;5092412;28;20025;-80
2022/03/10 09:26:38;;;;;;;46.97;21.88;;;7.80;99.90;;;;;;5103034;28;20033;-79
2022/03/10 09:29:04;;;;;;;40.33;21.58;;;8.00;99.90;;;;;;5108716;28;20695;-79
2022/03/10 09:31:30;;;;;;;42.15;20.90;;;8.00;99.90;;;;;;5086111;28;20596;-79
2022/03/10 09:33:55;;;;;;;44.45;20.75;;;8.20;99.90;;;;;;5083474;28;20024;-80
2022/03/10 09:36:21;;;;;;;37.17;20.33;;;8.20;99.90;;;;;;5108232;28;20032;-80
2022/03/10 09:38:47;;;;;;;42.80;20.85;;;8.30;99.90;;;;;;5086277;28;20028;-80
2022/03/10 09:41:12;;;;;;;44.28;21.38;;;8.40;99.90;;;;;;5112848;28;20024;-81
2022/03/10 09:43:39;;;;;;;42.70;21.65;;;8.50;99.90;;;;;;5113783;28;20102;-79
2022/03/10 09:46:08;;;;;;;41.60;20.48;;;8.60;99.90;;;;;;5111858;28;20020;-80
2022/03/10 09:48:35;;;;;;;36.67;20.88;;;8.70;99.90;;;;;;5104316;28;20080;-79
2022/03/10 09:51:01;;;;;;;36.78;21.45;;;8.70;99.90;;;;;;5086726;28;20034;-80
2022/03/10 09:53:27;;;;;;;39.13;21.80;;;8.90;99.90;;;;;;5099792;28;20027;-80
2022/03/10 09:55:54;;;;;;;39.03;20.77;;;9.00;99.90;;;;;;5095863;28;20034;-80
2022/03/10 09:58:19;;;;;;;40.65;20.77;;;9.10;99.90;;;;;;5110782;28;20023;-80
2022/03/10 10:00:45;;;;;;;40.58;21.35;;;9.20;99.90;;;;;;5112703;28;20027;-80
2022/03/10 10:03:10;;;;;;;38.35;21.02;;;9.30;99.90;;;;;;5112129;28;20039;-80
2022/03/10 10:05:40;;;;;;;34.95;20.15;;;9.40;99.90;;;;;;5112687;28;20048;-80
2022/03/10 10:08:09;;;;;;;39.05;21.20;;;9.50;99.90;;;;;;5086337;28;20111;-81
2022/03/10 10:10:37;;;;;;;36.70;20.15;;;9.60;99.90;;;;;;5081543;28;20103;-78
2022/03/10 10:13:06;;;;;;;35.22;21.00;;;9.70;99.90;;;;;;5092216;28;20029;-79
2022/03/10 10:15:33;;;;;;;38.30;20.65;;;9.90;99.90;;;;;;5088239;28;20030;-80
2022/03/10 10:18:00;;;;;;;47.55;21.73;;;9.90;99.90;;;;;;5090789;28;20102;-78
2022/03/10 10:20:43;;;;;;;44.75;20.95;;;10.00;99.90;;;;;;5091113;28;20094;-79
2022/03/10 10:23:24;;;;;;;39.90;20.17;;;10.00;99.90;;;;;;5081649;28;20024;-79
2022/03/10 10:25:57;;;;;;;39.92;21.08;;;10.10;99.90;;;;;;5112905;28;20035;-79
2022/03/10 10:28:28;;;;;;;39.80;22.20;;;10.10;99.90;;;;;;5103773;28;20114;-80
2022/03/10 10:30:57;;;;;;;39.65;21.92;;;10.20;99.90;;;;;;5117494;28;20055;-79
2022/03/10 10:33:23;;;;;;;36.90;20.80;;;10.30;99.90;;;;;;5087255;28;20039;-80
2022/03/10 10:35:48;;;;;;;33.63;20.52;;;10.40;99.90;;;;;;5091305;28;20021;-76
2022/03/10 10:38:28;;;;;;;35.70;21.92;;;10.40;99.90;;;;;;5088726;28;20457;-77
2022/03/10 10:41:18;;;;;;;38.25;21.42;;;10.50;99.90;;;;;;5086442;28;20036;-76
2022/03/10 10:43:52;;;;;;;34.80;21.65;;;10.60;99.90;;;;;;5083485;28;20028;-76
2022/03/10 10:46:31;;;;;;;37.35;22.33;;;10.70;99.90;;;;;;5087612;28;20044;-76
2022/03/10 10:48:58;;;;;;;36.97;21.35;;;10.80;99.90;;;;;;5087678;28;20033;-76
2022/03/10 10:51:35;;;;;;;38.10;22.42;;;10.90;99.90;;;;;;5089402;28;20020;-75
2022/03/10 10:54:04;;;;;;;38.90;21.45;;;11.00;99.90;;;;;;5112388;28;20019;-74
2022/03/10 10:56:30;;;;;;;39.58;22.27;;;11.10;99.90;;;;;;5111646;28;20019;-74
2022/03/10 10:58:56;;;;;;;34.65;21.13;;;11.20;99.90;;;;;;5111722;28;20383;-74
2022/03/10 11:01:36;;;;;;;40.95;22.10;;;11.20;99.90;;;;;;5112034;28;20026;-75
2022/03/10 11:04:05;;;;;;;37.30;22.02;;;11.30;99.90;;;;;;5111307;28;20088;-74
2022/03/10 11:06:32;;;;;;;41.95;22.08;;;11.30;99.90;;;;;;5111569;28;20055;-74
2022/03/10 11:08:58;;;;;;;35.90;21.10;;;11.40;99.90;;;;;;5111968;28;20019;-74
2022/03/10 11:11:24;;;;;;;39.55;22.25;;;11.40;99.90;;;;;;5111208;28;20531;-74
2022/03/10 11:13:50;;;;;;;37.63;22.30;;;11.60;99.90;;;;;;5111417;28;20024;-74
2022/03/10 11:16:17;;;;;;;35.58;21.90;;;11.60;99.90;;;;;;5110973;28;20026;-75
2022/03/10 11:18:49;;;;;;;35.13;22.00;;;11.70;99.90;;;;;;5111013;28;20019;-74
2022/03/10 11:21:37;;;;;;;36.17;21.30;;;11.70;99.90;;;;;;5111645;28;20023;-75
2022/03/10 11:24:40;;;;;;;40.05;22.33;;;11.80;99.80;;;;;;5110328;28;20487;-74
2022/03/10 11:27:16;;;;;;;37.97;21.05;;;11.90;99.40;;;;;;5108701;28;20126;-74
2022/03/10 11:29:46;;;;;;;36.03;21.15;;;11.90;99.20;;;;;;5111337;28;20027;-74
2022/03/10 11:32:12;;;;;;;35.92;21.63;;;11.90;99.10;;;;;;5109476;28;20047;-74
2022/03/10 11:34:55;;;;;;;33.13;20.88;;;12.00;99.10;;;;;;5111279;28;20043;-74
2022/03/10 11:37:50;;;;;;;33.15;22.25;;;12.10;98.80;;;;;;5111283;28;20092;-73
2022/03/10 11:40:18;;;;;;;35.63;22.00;;;12.20;98.60;;;;;;5109101;28;20024;-74
2022/03/10 11:42:43;;;;;;;37.38;22.60;;;12.30;98.70;;;;;;5111027;28;20030;-75
2022/03/10 11:45:19;;;;;;;37.50;22.33;;;12.30;98.30;;;;;;5111631;28;20016;-76
2022/03/10 11:47:47;;;;;;;37.03;20.85;;;12.40;98.10;;;;;;5112500;28;20039;-77
2022/03/10 11:50:24;;;;;;;33.70;20.67;;;12.40;98.00;;;;;;5111259;28;20220;-76
2022/03/10 11:53:01;;;;;;;37.88;20.88;;;12.50;97.80;;;;;;5110788;28;20024;-75
2022/03/10 11:55:46;;;;;;;43.25;21.20;;;12.50;96.90;;;;;;5111240;28;20024;-74
2022/03/10 11:58:13;;;;;;;37.40;20.67;;;12.60;96.50;;;;;;5105797;28;20085;-74
2022/03/10 12:00:44;;;;;;;35.92;20.00;;;12.70;95.80;;;;;;5110640;28;20475;-75
2022/03/10 12:03:17;;;;;;;35.20;21.65;;;12.80;95.90;;;;;;5110788;28;20502;-76
2022/03/10 12:06:05;;;;;;;35.38;21.33;;;12.80;96.10;;;;;;5111026;28;20048;-76
2022/03/10 12:08:35;;;;;;;32.40;21.52;;;12.90;95.30;;;;;;5109802;28;20062;-76
2022/03/10 12:11:04;;;;;;;29.70;18.98;;;13.00;95.30;;;;;;5110801;28;20015;-76
2022/03/10 12:13:31;;;;;;;31.90;19.70;;;13.10;95.10;;;;;;5102223;28;20512;-76
2022/03/10 12:15:58;;;;;;;33.47;19.33;;;13.20;94.60;;;;;;5091895;28;20055;-76
2022/03/10 12:18:43;;;;;;;33.15;19.30;;;13.30;93.70;;;;;;5116125;28;20019;-78
2022/03/10 12:21:20;;;;;;;34.55;20.67;;;13.40;93.40;;;;;;5111244;28;20032;-76
2022/03/10 12:24:12;;;;;;;33.63;20.00;;;13.40;92.90;;;;;;5110943;28;20024;-76
2022/03/10 12:26:46;;;;;;;38.03;19.15;;;14.00;92.90;;;;;;5107082;28;20130;-76
2022/03/10 12:29:13;;;;;;;32.50;18.67;;;13.50;92.80;;;;;;5113271;28;20020;-76
2022/03/10 12:31:40;;;;;;;29.17;17.73;;;13.50;91.00;;;;;;5115305;28;20673;-76
2022/03/10 12:34:15;;;;;;;35.83;18.40;;;13.70;91.00;;;;;;5114761;28;20496;-78
2022/03/10 12:36:49;;;;;;;29.90;18.17;;;13.70;90.20;;;;;;5111974;28;20028;-76
2022/03/10 12:39:20;;;;;;;35.50;18.50;;;13.80;89.40;;;;;;5115131;28;20027;-76
2022/03/10 12:41:50;;;;;;;33.80;18.05;;;13.90;89.80;;;;;;5114698;28;20024;-76